Weather at Ilebo Airport

Public forecast

Using degrees Celsius for public forecast. Weather courtesy of forecast.io.

Closest aviation weather report (METAR) to Ilebo Airport

Closest report is Mbuji Mayi Airport, 208.1 nm (385.3 km) ESE. Retrieved 2020/10/29 13:00 UTC (59 minutes ago):

FZWA 291300Z 27008KT 9999 FEW022 FEW024TCU BKN300 28/22 Q1011 NOSIG

Closest aviation forecast (TAF) to Ilebo Airport

Forecast is more than 12 hours old.

Closest forecast is Mbuji Mayi Airport, 208.1 nm (385.3 km) ESE. Retrieved 2019/11/03 12:00 UTC (12 months ago):

TAF FZWA 031100Z 0312/0418 09006KT 9999 SCT024 FEW030CB PROB30 TEMPO 0313/0318 TS BECMG 0322/0400 00000KT FEW012 BECMG 0409/0411 36008KT SCT023 FEW030CB